Costa Fascinosa — ICPO — position and weather

sailwx.info

Track history (hours):
 
Tides and Currents Weather Stations Pressure Air Temp Water Temp Dewpoint Dewpoint Depression Visibility Wind Speed Wind Dir Waves Ship Positions

Costa Fascinosa

Last reported at 2017-Apr-23 23:51 UTC. Time now 2017-Apr-24 11:23 UTC.
Position N 42°02' E 010°25'.

Length 291 m; draft 8.3 m.

Type: Passenger vessel. MMSI: 247313500.

Date/timePositionNaut miles runAvg speedWind from/ knotsBaromVisibWave heightAir tempDewpointWater temp
2017-Apr-23 23:51N 42°02' E 010°25'819.0
2017-Apr-23 23:25N 42°07' E 010°16'2818.4
2017-Apr-23 21:53N 42°28' E 009°50'819.3
2017-Apr-23 21:28N 42°35' E 009°46'919.1
2017-Apr-23 21:00N 42°44' E 009°42'1019.2
2017-Apr-23 20:30N 42°52' E 009°38'1019.0
2017-Apr-23 20:00N 43°02' E 009°35'918.7
2017-Apr-23 19:30N 43°10' E 009°29'1019.1
2017-Apr-23 19:00N 43°18' E 009°22'1019.0
2017-Apr-23 18:30N 43°26' E 009°15'918.6
2017-Apr-23 18:00N 43°34' E 009°08'918.3
2017-Apr-23 17:30N 43°42' E 009°01'918.2
2017-Apr-23 17:00N 43°50' E 008°55'918.0
2017-Apr-23 16:30N 43°58' E 008°49'918.2
2017-Apr-23 16:00N 44°05' E 008°43'918.7
2017-Apr-23 15:30N 44°13' E 008°36'713.9
2017-Apr-23 15:00N 44°19' E 008°30'1 0.8
2017-Apr-23 13:59N 44°19' E 008°29'0 0.0
2017-Apr-23 13:23N 44°19' E 008°29'0 0.0
2017-Apr-23 12:59N 44°19' E 008°29'0 0.0
2017-Apr-23 12:29N 44°19' E 008°29'0 0.0
2017-Apr-23 11:59N 44°19' E 008°29'0 0.0
2017-Apr-23 11:29N 44°19' E 008°29'0 0.0
2017-Apr-23 10:56N 44°19' E 008°29'0 0.0
2017-Apr-23 10:26N 44°19' E 008°29'0 0.0
2017-Apr-23 09:56N 44°19' E 008°29'0 0.0
2017-Apr-23 09:29N 44°19' E 008°29'0 0.0
2017-Apr-23 08:53N 44°19' E 008°29'0 0.0
2017-Apr-23 08:29N 44°19' E 008°29'0 0.0
2017-Apr-23 07:59N 44°19' E 008°29'0 0.0
2017-Apr-23 07:29N 44°19' E 008°29'0 0.0
2017-Apr-23 06:59N 44°19' E 008°29'0 0.5
2017-Apr-23 06:30N 44°19' E 008°29'2 4.3
2017-Apr-23 06:00N 44°18' E 008°32'917.3
2017-Apr-23 05:30N 44°09' E 008°28'1018.9
2017-Apr-23 04:58N 44°01' E 008°21'917.8
2017-Apr-23 04:29N 43°53' E 008°14'1312.7
2017-Apr-23 03:29N 43°44' E 008°03'612.8
2017-Apr-23 03:00N 43°40' E 007°56'612.8
2017-Apr-23 02:31N 43°37' E 007°49'612.7
2017-Apr-23 02:00N 43°33' E 007°41'612.6
2017-Apr-23 01:30N 43°29' E 007°34'612.6
2017-Apr-23 01:01N 43°26' E 007°27'612.7
2017-Apr-23 00:30N 43°22' E 007°20'612.7
2017-Apr-23 00:00N 43°18' E 007°13'612.7
2017-Apr-22 23:30N 43°14' E 007°07'912.5
2017-Apr-22 22:46N 43°09' E 006°56'312.8
2017-Apr-22 22:29N 43°07' E 006°52'612.7
2017-Apr-22 22:00N 43°04' E 006°45'712.6
2017-Apr-22 21:25N 42°60' E 006°36'4212.6
2017-Apr-22 18:07N 43°01' E 005°39'1912.9
2017-Apr-22 16:40N 43°09' E 005°16'212.5
2017-Apr-22 16:31N 43°10' E 005°14'611.7
2017-Apr-22 16:01N 43°15' E 005°10'611.1
2017-Apr-22 15:30N 43°19' E 005°15'4 3.1
2017-Apr-22 14:09N 43°21' E 005°20'0 0.0
2017-Apr-22 10:39N 43°21' E 005°20'0 0.0
2017-Apr-22 08:09N 43°21' E 005°20'0 0.0
2017-Apr-22 07:45N 43°21' E 005°20'0 0.0
2017-Apr-22 06:45N 43°21' E 005°20'0 0.1
2017-Apr-22 06:30N 43°21' E 005°20'1 2.4
2017-Apr-22 05:59N 43°21' E 005°18'4 8.9
2017-Apr-22 05:30N 43°19' E 005°14'713.3
2017-Apr-22 05:00N 43°12' E 005°10'3813.3
2017-Apr-22 02:09N 42°45' E 004°34'11013.3
2017-Apr-21 17:52N 41°30' E 002°44'513.3
2017-Apr-21 17:28N 41°27' E 002°39'2312.0
2017-Apr-21 15:32N 41°17' E 002°11'012.5
2017-Apr-21 15:30N 41°17' E 002°11'4 1.0
2017-Apr-21 11:20N 41°21' E 002°10'0 0.0
2017-Apr-21 09:20N 41°21' E 002°10'0 0.0
2017-Apr-21 08:59N 41°21' E 002°10'0 0.0
2017-Apr-21 08:30N 41°21' E 002°10'0 0.0
2017-Apr-21 08:01N 41°21' E 002°10'0 0.0
2017-Apr-21 07:29N 41°21' E 002°10'0 0.0
2017-Apr-21 07:01N 41°21' E 002°10'6 5.6
2017-Apr-21 05:54N 41°15' E 002°12'611.3
2017-Apr-21 05:25N 41°10' E 002°15'512.1
2017-Apr-21 05:01N 41°07' E 002°20'612.2
2017-Apr-21 04:30N 41°02' E 002°25'612.2
2017-Apr-21 04:00N 40°57' E 002°30'612.3
2017-Apr-21 03:30N 40°52' E 002°35'612.3
2017-Apr-21 03:00N 40°47' E 002°40'612.1
2017-Apr-21 02:30N 40°42' E 002°45'611.7
2017-Apr-21 02:00N 40°38' E 002°50'611.7
2017-Apr-21 01:30N 40°33' E 002°54'611.6
2017-Apr-21 01:00N 40°29' E 002°59'611.4
2017-Apr-21 00:30N 40°24' E 003°03'611.8
2017-Apr-21 00:00N 40°19' E 003°08'1112.3
2017-Apr-20 23:07N 40°11' E 003°17'312.0
2017-Apr-20 22:54N 40°08' E 003°19'1313.0
2017-Apr-20 21:56N 39°59' E 003°29'818.6
2017-Apr-20 21:30N 39°53' E 003°35'918.6
2017-Apr-20 21:00N 39°46' E 003°44'1518.4
2017-Apr-20 20:11N 39°40' E 004°02'418.6
2017-Apr-20 19:59N 39°39' E 004°06'21617.0
2017-Apr-20 07:21N 38°34' E 008°31'27418.1
2017-Apr-19 16:10N 36°26' E 013°37'317.9
2017-Apr-19 16:00N 36°25' E 013°40'917.5
2017-Apr-19 15:30N 36°20' E 013°50'917.6
2017-Apr-19 15:00N 36°17' E 013°60'917.8
2017-Apr-19 14:30N 36°12' E 014°09'1817.8
2017-Apr-19 13:30N 36°03' E 014°28'816.5
2017-Apr-19 13:00N 35°56' E 014°34'3 0.4
2017-Apr-19 05:57N 35°54' E 014°31'2 5.1
2017-Apr-19 05:30N 35°55' E 014°33'816.1
2017-Apr-19 05:01N 36°02' E 014°29'1019.1
2017-Apr-19 04:30N 36°09' E 014°21'714.5
2017-Apr-19 04:00N 36°14' E 014°14'713.5
2017-Apr-19 03:30N 36°19' E 014°08'816.3
2017-Apr-19 03:00N 36°24' E 013°60'1020.2
2017-Apr-19 02:30N 36°29' E 013°49'1019.8
2017-Apr-19 01:59N 36°34' E 013°38'1119.4
2017-Apr-19 01:25N 36°39' E 013°27'819.3
2017-Apr-19 01:00N 36°43' E 013°18'1019.6
2017-Apr-19 00:30N 36°50' E 013°08'8019.4
2017-Apr-18 20:24N 37°45' E 011°56'1018.7
2017-Apr-18 19:52N 37°55' E 011°55'918.5
2017-Apr-18 19:24N 38°03' E 011°56'717.3
2017-Apr-18 19:00N 38°09' E 012°02'1117.4
2017-Apr-18 18:24N 38°14' E 012°14'718.2
2017-Apr-18 18:00N 38°15' E 012°23'918.1
2017-Apr-18 17:30N 38°16' E 012°34'917.9
2017-Apr-18 17:00N 38°17' E 012°45'917.8
2017-Apr-18 16:30N 38°17' E 012°57'917.9
2017-Apr-18 16:00N 38°17' E 013°08'917.6
2017-Apr-18 15:30N 38°17' E 013°19'817.0
2017-Apr-18 15:00N 38°10' E 013°26'4 7.4
2017-Apr-18 14:30N 38°07' E 013°23'1 0.7
2017-Apr-18 13:30N 38°08' E 013°22'0 0.0
2017-Apr-18 13:00N 38°08' E 013°22'0 0.0
2017-Apr-18 12:30N 38°08' E 013°22'0 0.0
2017-Apr-18 12:00N 38°08' E 013°22'0 0.0
2017-Apr-18 11:30N 38°08' E 013°22'0 0.0
2017-Apr-18 11:00N 38°08' E 013°22'0 0.0
2017-Apr-18 10:31N 38°08' E 013°22'0 0.0
2017-Apr-18 10:00N 38°08' E 013°22'0 0.0
2017-Apr-18 09:30N 38°08' E 013°22'0 0.0
2017-Apr-18 09:00N 38°08' E 013°22'0 0.0
2017-Apr-18 08:30N 38°08' E 013°22'0 0.0
2017-Apr-18 08:00N 38°08' E 013°22'0 0.0
2017-Apr-18 07:30N 38°08' E 013°22'0 0.0
2017-Apr-18 07:00N 38°08' E 013°22'0 0.0
2017-Apr-18 06:30N 38°08' E 013°22'2 3.1
2017-Apr-18 06:00N 38°08' E 013°24'713.5
2017-Apr-18 05:31N 38°14' E 013°26'918.3
2017-Apr-18 05:00N 38°23' E 013°29'918.2
2017-Apr-18 04:30N 38°32' E 013°32'918.3
2017-Apr-18 04:01N 38°41' E 013°35'918.6
2017-Apr-18 03:30N 38°50' E 013°37'245 8.7
2017-Apr-16 23:23N 42°04' E 010°22'719.0
2017-Apr-16 23:00N 42°08' E 010°13'1019.1
2017-Apr-16 22:30N 42°14' E 010°02'1218.3
2017-Apr-16 21:51N 42°23' E 009°52'819.2
2017-Apr-16 21:26N 42°30' E 009°48'1019.1
2017-Apr-16 20:54N 42°40' E 009°43'719.0
2017-Apr-16 20:31N 42°47' E 009°40'918.8
2017-Apr-16 20:00N 42°56' E 009°37'918.6
2017-Apr-16 19:30N 43°05' E 009°33'1019.1
2017-Apr-16 19:00N 43°13' E 009°26'919.0
2017-Apr-16 18:30N 43°21' E 009°20'918.8
2017-Apr-16 18:00N 43°29' E 009°13'918.8
2017-Apr-16 17:30N 43°37' E 009°06'918.8
2017-Apr-16 17:00N 43°45' E 008°60'918.7
2017-Apr-16 16:31N 43°53' E 008°53'918.4
2017-Apr-16 16:00N 44°01' E 008°46'918.7
2017-Apr-16 15:30N 44°09' E 008°39'918.7
2017-Apr-16 15:00N 44°17' E 008°33'3 5.8
2017-Apr-16 14:30N 44°19' E 008°30'0 0.0
2017-Apr-16 09:03N 44°19' E 008°30'0 0.0
2017-Apr-16 08:39N 44°19' E 008°30'0 0.0
2017-Apr-16 08:30N 44°19' E 008°30'0 0.0
2017-Apr-16 08:00N 44°19' E 008°30'0 0.0
2017-Apr-16 07:30N 44°19' E 008°30'0 0.0
2017-Apr-16 07:00N 44°19' E 008°30'1 1.4
2017-Apr-16 06:31N 44°19' E 008°30'3 7.0
2017-Apr-16 06:01N 44°17' E 008°34'510.3
2017-Apr-16 05:30N 44°12' E 008°35'918.8
2017-Apr-16 05:00N 44°05' E 008°26'918.6
2017-Apr-16 04:30N 43°57' E 008°18'714.1
2017-Apr-16 04:00N 43°51' E 008°13'612.6
2017-Apr-16 03:30N 43°46' E 008°08'612.6
2017-Apr-16 03:00N 43°43' E 008°01'612.7
2017-Apr-16 02:30N 43°39' E 007°53'612.9
2017-Apr-16 02:00N 43°35' E 007°46'713.2
2017-Apr-16 01:30N 43°31' E 007°39'713.1
2017-Apr-16 01:00N 43°28' E 007°31'612.9
2017-Apr-16 00:30N 43°24' E 007°24'613.0
2017-Apr-16 00:00N 43°20' E 007°17'713.4
2017-Apr-15 23:30N 43°16' E 007°09'713.4
2017-Apr-15 23:00N 43°12' E 007°02'913.0
2017-Apr-15 22:20N 43°08' E 006°52'412.3
2017-Apr-15 22:00N 43°05' E 006°47'712.1
2017-Apr-15 21:28N 43°02' E 006°40'5612.7
2017-Apr-15 17:06N 43°06' E 005°24'713.5
2017-Apr-15 16:35N 43°09' E 005°15'113.2
2017-Apr-15 16:30N 43°09' E 005°14'611.8
2017-Apr-15 16:00N 43°14' E 005°10'611.3
2017-Apr-15 15:30N 43°19' E 005°15'4 8.4
2017-Apr-15 15:00N 43°21' E 005°20'0 0.0
2017-Apr-15 06:32N 43°21' E 005°20'0 0.0
2017-Apr-15 06:20N 43°21' E 005°20'0 0.0
2017-Apr-15 05:50N 43°21' E 005°20'0 0.2
2017-Apr-15 05:30N 43°21' E 005°20'2 3.2
2017-Apr-15 05:00N 43°21' E 005°18'510.0
2017-Apr-15 04:29N 43°17' E 005°13'510.5
2017-Apr-15 04:00N 43°13' E 005°11'611.7
2017-Apr-15 03:30N 43°10' E 005°03'2912.2
2017-Apr-15 01:09N 43°06' E 004°24'2713.3
2017-Apr-14 23:09N 43°02' E 003°49'10517.5
2017-Apr-14 17:10N 41°29' E 002°42'319.2
2017-Apr-14 17:00N 41°27' E 002°39'918.9
2017-Apr-14 16:30N 41°22' E 002°29'918.8
2017-Apr-14 16:00N 41°16' E 002°19'713.4
2017-Apr-14 15:31N 41°18' E 002°10'3 0.7
2017-Apr-14 10:38N 41°21' E 002°10'0 0.0
2017-Apr-14 10:20N 41°21' E 002°10'0 0.0
2017-Apr-14 09:56N 41°21' E 002°10'0 0.0
2017-Apr-14 09:26N 41°21' E 002°10'0 0.0
2017-Apr-14 08:38N 41°21' E 002°10'0 0.0
2017-Apr-14 07:32N 41°21' E 002°10'0 0.0
2017-Apr-14 07:26N 41°21' E 002°10'0 0.0
2017-Apr-14 06:57N 41°21' E 002°10'1 2.7
2017-Apr-14 06:29N 41°20' E 002°10'4 9.0
2017-Apr-14 06:00N 41°16' E 002°12'511.0
2017-Apr-14 05:30N 41°11' E 002°16'612.7
2017-Apr-14 05:00N 41°06' E 002°21'612.7
2017-Apr-14 04:30N 41°01' E 002°26'612.7
2017-Apr-14 04:00N 40°56' E 002°32'612.0
2017-Apr-14 03:30N 40°52' E 002°36'612.0
2017-Apr-14 03:00N 40°47' E 002°41'612.0
2017-Apr-14 02:30N 40°42' E 002°46'612.1
2017-Apr-14 02:00N 40°37' E 002°51'612.3
2017-Apr-14 01:30N 40°33' E 002°56'612.3
2017-Apr-14 01:00N 40°28' E 003°01'612.2
2017-Apr-14 00:30N 40°23' E 003°06'611.9
2017-Apr-14 00:00N 40°18' E 003°11'  
Track history (hours):
 
Tides and Currents Weather Stations Pressure Air Temp Water Temp Dewpoint Dewpoint Depression Visibility Wind Speed Wind Dir Waves Ship Positions

Costa Fascinosa

Last reported at 2017-Apr-23 23:51 UTC. Time now 2017-Apr-24 11:23 UTC.
Position N 42°02' E 010°25'.

Length 291 m; draft 8.3 m.

Type: Passenger vessel. MMSI: 247313500.

Date/timePositionNaut miles runAvg speedWind from/ knotsBaromVisibWave heightAir tempDewpointWater temp
2017-Apr-23 23:51N 42°02' E 010°25'819.0
2017-Apr-23 23:25N 42°07' E 010°16'2818.4
2017-Apr-23 21:53N 42°28' E 009°50'819.3
2017-Apr-23 21:28N 42°35' E 009°46'919.1
2017-Apr-23 21:00N 42°44' E 009°42'1019.2
2017-Apr-23 20:30N 42°52' E 009°38'1019.0
2017-Apr-23 20:00N 43°02' E 009°35'918.7
2017-Apr-23 19:30N 43°10' E 009°29'1019.1
2017-Apr-23 19:00N 43°18' E 009°22'1019.0
2017-Apr-23 18:30N 43°26' E 009°15'918.6
2017-Apr-23 18:00N 43°34' E 009°08'918.3
2017-Apr-23 17:30N 43°42' E 009°01'918.2
2017-Apr-23 17:00N 43°50' E 008°55'918.0
2017-Apr-23 16:30N 43°58' E 008°49'918.2
2017-Apr-23 16:00N 44°05' E 008°43'918.7
2017-Apr-23 15:30N 44°13' E 008°36'713.9
2017-Apr-23 15:00N 44°19' E 008°30'1 0.8
2017-Apr-23 13:59N 44°19' E 008°29'0 0.0
2017-Apr-23 13:23N 44°19' E 008°29'0 0.0
2017-Apr-23 12:59N 44°19' E 008°29'0 0.0
2017-Apr-23 12:29N 44°19' E 008°29'0 0.0
2017-Apr-23 11:59N 44°19' E 008°29'0 0.0
2017-Apr-23 11:29N 44°19' E 008°29'0 0.0
2017-Apr-23 10:56N 44°19' E 008°29'0 0.0
2017-Apr-23 10:26N 44°19' E 008°29'0 0.0
2017-Apr-23 09:56N 44°19' E 008°29'0 0.0
2017-Apr-23 09:29N 44°19' E 008°29'0 0.0
2017-Apr-23 08:53N 44°19' E 008°29'0 0.0
2017-Apr-23 08:29N 44°19' E 008°29'0 0.0
2017-Apr-23 07:59N 44°19' E 008°29'0 0.0
2017-Apr-23 07:29N 44°19' E 008°29'0 0.0
2017-Apr-23 06:59N 44°19' E 008°29'0 0.5
2017-Apr-23 06:30N 44°19' E 008°29'2 4.3
2017-Apr-23 06:00N 44°18' E 008°32'917.3
2017-Apr-23 05:30N 44°09' E 008°28'1018.9
2017-Apr-23 04:58N 44°01' E 008°21'917.8
2017-Apr-23 04:29N 43°53' E 008°14'1312.7
2017-Apr-23 03:29N 43°44' E 008°03'612.8
2017-Apr-23 03:00N 43°40' E 007°56'612.8
2017-Apr-23 02:31N 43°37' E 007°49'612.7
2017-Apr-23 02:00N 43°33' E 007°41'612.6
2017-Apr-23 01:30N 43°29' E 007°34'612.6
2017-Apr-23 01:01N 43°26' E 007°27'612.7
2017-Apr-23 00:30N 43°22' E 007°20'612.7
2017-Apr-23 00:00N 43°18' E 007°13'612.7
2017-Apr-22 23:30N 43°14' E 007°07'912.5
2017-Apr-22 22:46N 43°09' E 006°56'312.8
2017-Apr-22 22:29N 43°07' E 006°52'612.7
2017-Apr-22 22:00N 43°04' E 006°45'712.6
2017-Apr-22 21:25N 42°60' E 006°36'4212.6
2017-Apr-22 18:07N 43°01' E 005°39'1912.9
2017-Apr-22 16:40N 43°09' E 005°16'212.5
2017-Apr-22 16:31N 43°10' E 005°14'611.7
2017-Apr-22 16:01N 43°15' E 005°10'611.1
2017-Apr-22 15:30N 43°19' E 005°15'4 3.1
2017-Apr-22 14:09N 43°21' E 005°20'0 0.0
2017-Apr-22 10:39N 43°21' E 005°20'0 0.0
2017-Apr-22 08:09N 43°21' E 005°20'0 0.0
2017-Apr-22 07:45N 43°21' E 005°20'0 0.0
2017-Apr-22 06:45N 43°21' E 005°20'0 0.1
2017-Apr-22 06:30N 43°21' E 005°20'1 2.4
2017-Apr-22 05:59N 43°21' E 005°18'4 8.9
2017-Apr-22 05:30N 43°19' E 005°14'713.3
2017-Apr-22 05:00N 43°12' E 005°10'3813.3
2017-Apr-22 02:09N 42°45' E 004°34'11013.3
2017-Apr-21 17:52N 41°30' E 002°44'513.3
2017-Apr-21 17:28N 41°27' E 002°39'2312.0
2017-Apr-21 15:32N 41°17' E 002°11'012.5
2017-Apr-21 15:30N 41°17' E 002°11'4 1.0
2017-Apr-21 11:20N 41°21' E 002°10'0 0.0
2017-Apr-21 09:20N 41°21' E 002°10'0 0.0
2017-Apr-21 08:59N 41°21' E 002°10'0 0.0
2017-Apr-21 08:30N 41°21' E 002°10'0 0.0
2017-Apr-21 08:01N 41°21' E 002°10'0 0.0
2017-Apr-21 07:29N 41°21' E 002°10'0 0.0
2017-Apr-21 07:01N 41°21' E 002°10'6 5.6
2017-Apr-21 05:54N 41°15' E 002°12'611.3
2017-Apr-21 05:25N 41°10' E 002°15'512.1
2017-Apr-21 05:01N 41°07' E 002°20'612.2
2017-Apr-21 04:30N 41°02' E 002°25'612.2
2017-Apr-21 04:00N 40°57' E 002°30'612.3
2017-Apr-21 03:30N 40°52' E 002°35'612.3
2017-Apr-21 03:00N 40°47' E 002°40'612.1
2017-Apr-21 02:30N 40°42' E 002°45'611.7
2017-Apr-21 02:00N 40°38' E 002°50'611.7
2017-Apr-21 01:30N 40°33' E 002°54'611.6
2017-Apr-21 01:00N 40°29' E 002°59'611.4
2017-Apr-21 00:30N 40°24' E 003°03'611.8
2017-Apr-21 00:00N 40°19' E 003°08'1112.3
2017-Apr-20 23:07N 40°11' E 003°17'312.0
2017-Apr-20 22:54N 40°08' E 003°19'1313.0
2017-Apr-20 21:56N 39°59' E 003°29'818.6
2017-Apr-20 21:30N 39°53' E 003°35'918.6
2017-Apr-20 21:00N 39°46' E 003°44'1518.4
2017-Apr-20 20:11N 39°40' E 004°02'418.6
2017-Apr-20 19:59N 39°39' E 004°06'21617.0
2017-Apr-20 07:21N 38°34' E 008°31'27418.1
2017-Apr-19 16:10N 36°26' E 013°37'317.9
2017-Apr-19 16:00N 36°25' E 013°40'917.5
2017-Apr-19 15:30N 36°20' E 013°50'917.6
2017-Apr-19 15:00N 36°17' E 013°60'917.8
2017-Apr-19 14:30N 36°12' E 014°09'1817.8
2017-Apr-19 13:30N 36°03' E 014°28'816.5
2017-Apr-19 13:00N 35°56' E 014°34'3 0.4
2017-Apr-19 05:57N 35°54' E 014°31'2 5.1
2017-Apr-19 05:30N 35°55' E 014°33'816.1
2017-Apr-19 05:01N 36°02' E 014°29'1019.1
2017-Apr-19 04:30N 36°09' E 014°21'714.5
2017-Apr-19 04:00N 36°14' E 014°14'713.5
2017-Apr-19 03:30N 36°19' E 014°08'816.3
2017-Apr-19 03:00N 36°24' E 013°60'1020.2
2017-Apr-19 02:30N 36°29' E 013°49'1019.8
2017-Apr-19 01:59N 36°34' E 013°38'1119.4
2017-Apr-19 01:25N 36°39' E 013°27'819.3
2017-Apr-19 01:00N 36°43' E 013°18'1019.6
2017-Apr-19 00:30N 36°50' E 013°08'8019.4
2017-Apr-18 20:24N 37°45' E 011°56'1018.7
2017-Apr-18 19:52N 37°55' E 011°55'918.5
2017-Apr-18 19:24N 38°03' E 011°56'717.3
2017-Apr-18 19:00N 38°09' E 012°02'1117.4
2017-Apr-18 18:24N 38°14' E 012°14'718.2
2017-Apr-18 18:00N 38°15' E 012°23'918.1
2017-Apr-18 17:30N 38°16' E 012°34'917.9
2017-Apr-18 17:00N 38°17' E 012°45'917.8
2017-Apr-18 16:30N 38°17' E 012°57'917.9
2017-Apr-18 16:00N 38°17' E 013°08'917.6
2017-Apr-18 15:30N 38°17' E 013°19'817.0
2017-Apr-18 15:00N 38°10' E 013°26'4 7.4
2017-Apr-18 14:30N 38°07' E 013°23'1 0.7
2017-Apr-18 13:30N 38°08' E 013°22'0 0.0
2017-Apr-18 13:00N 38°08' E 013°22'0 0.0
2017-Apr-18 12:30N 38°08' E 013°22'0 0.0
2017-Apr-18 12:00N 38°08' E 013°22'0 0.0
2017-Apr-18 11:30N 38°08' E 013°22'0 0.0
2017-Apr-18 11:00N 38°08' E 013°22'0 0.0
2017-Apr-18 10:31N 38°08' E 013°22'0 0.0
2017-Apr-18 10:00N 38°08' E 013°22'0 0.0
2017-Apr-18 09:30N 38°08' E 013°22'0 0.0
2017-Apr-18 09:00N 38°08' E 013°22'0 0.0
2017-Apr-18 08:30N 38°08' E 013°22'0 0.0
2017-Apr-18 08:00N 38°08' E 013°22'0 0.0
2017-Apr-18 07:30N 38°08' E 013°22'0 0.0
2017-Apr-18 07:00N 38°08' E 013°22'0 0.0
2017-Apr-18 06:30N 38°08' E 013°22'2 3.1
2017-Apr-18 06:00N 38°08' E 013°24'713.5
2017-Apr-18 05:31N 38°14' E 013°26'918.3
2017-Apr-18 05:00N 38°23' E 013°29'918.2
2017-Apr-18 04:30N 38°32' E 013°32'918.3
2017-Apr-18 04:01N 38°41' E 013°35'918.6
2017-Apr-18 03:30N 38°50' E 013°37'245 8.7
2017-Apr-16 23:23N 42°04' E 010°22'719.0
2017-Apr-16 23:00N 42°08' E 010°13'1019.1
2017-Apr-16 22:30N 42°14' E 010°02'1218.3
2017-Apr-16 21:51N 42°23' E 009°52'819.2
2017-Apr-16 21:26N 42°30' E 009°48'1019.1
2017-Apr-16 20:54N 42°40' E 009°43'719.0
2017-Apr-16 20:31N 42°47' E 009°40'918.8
2017-Apr-16 20:00N 42°56' E 009°37'918.6
2017-Apr-16 19:30N 43°05' E 009°33'1019.1
2017-Apr-16 19:00N 43°13' E 009°26'919.0
2017-Apr-16 18:30N 43°21' E 009°20'918.8
2017-Apr-16 18:00N 43°29' E 009°13'918.8
2017-Apr-16 17:30N 43°37' E 009°06'918.8
2017-Apr-16 17:00N 43°45' E 008°60'918.7
2017-Apr-16 16:31N 43°53' E 008°53'918.4
2017-Apr-16 16:00N 44°01' E 008°46'918.7
2017-Apr-16 15:30N 44°09' E 008°39'918.7
2017-Apr-16 15:00N 44°17' E 008°33'3 5.8
2017-Apr-16 14:30N 44°19' E 008°30'0 0.0
2017-Apr-16 09:03N 44°19' E 008°30'0 0.0
2017-Apr-16 08:39N 44°19' E 008°30'0 0.0
2017-Apr-16 08:30N 44°19' E 008°30'0 0.0
2017-Apr-16 08:00N 44°19' E 008°30'0 0.0
2017-Apr-16 07:30N 44°19' E 008°30'0 0.0
2017-Apr-16 07:00N 44°19' E 008°30'1 1.4
2017-Apr-16 06:31N 44°19' E 008°30'3 7.0
2017-Apr-16 06:01N 44°17' E 008°34'510.3
2017-Apr-16 05:30N 44°12' E 008°35'918.8
2017-Apr-16 05:00N 44°05' E 008°26'918.6
2017-Apr-16 04:30N 43°57' E 008°18'714.1
2017-Apr-16 04:00N 43°51' E 008°13'612.6
2017-Apr-16 03:30N 43°46' E 008°08'612.6
2017-Apr-16 03:00N 43°43' E 008°01'612.7
2017-Apr-16 02:30N 43°39' E 007°53'612.9
2017-Apr-16 02:00N 43°35' E 007°46'713.2
2017-Apr-16 01:30N 43°31' E 007°39'713.1
2017-Apr-16 01:00N 43°28' E 007°31'612.9
2017-Apr-16 00:30N 43°24' E 007°24'613.0
2017-Apr-16 00:00N 43°20' E 007°17'713.4
2017-Apr-15 23:30N 43°16' E 007°09'713.4
2017-Apr-15 23:00N 43°12' E 007°02'913.0
2017-Apr-15 22:20N 43°08' E 006°52'412.3
2017-Apr-15 22:00N 43°05' E 006°47'712.1
2017-Apr-15 21:28N 43°02' E 006°40'5612.7
2017-Apr-15 17:06N 43°06' E 005°24'713.5
2017-Apr-15 16:35N 43°09' E 005°15'113.2
2017-Apr-15 16:30N 43°09' E 005°14'611.8
2017-Apr-15 16:00N 43°14' E 005°10'611.3
2017-Apr-15 15:30N 43°19' E 005°15'4 8.4
2017-Apr-15 15:00N 43°21' E 005°20'0 0.0
2017-Apr-15 06:32N 43°21' E 005°20'0 0.0
2017-Apr-15 06:20N 43°21' E 005°20'0 0.0
2017-Apr-15 05:50N 43°21' E 005°20'0 0.2
2017-Apr-15 05:30N 43°21' E 005°20'2 3.2
2017-Apr-15 05:00N 43°21' E 005°18'510.0
2017-Apr-15 04:29N 43°17' E 005°13'510.5
2017-Apr-15 04:00N 43°13' E 005°11'611.7
2017-Apr-15 03:30N 43°10' E 005°03'2912.2
2017-Apr-15 01:09N 43°06' E 004°24'2713.3
2017-Apr-14 23:09N 43°02' E 003°49'10517.5
2017-Apr-14 17:10N 41°29' E 002°42'319.2
2017-Apr-14 17:00N 41°27' E 002°39'918.9
2017-Apr-14 16:30N 41°22' E 002°29'918.8
2017-Apr-14 16:00N 41°16' E 002°19'713.4
2017-Apr-14 15:31N 41°18' E 002°10'3 0.7
2017-Apr-14 10:38N 41°21' E 002°10'0 0.0
2017-Apr-14 10:20N 41°21' E 002°10'0 0.0
2017-Apr-14 09:56N 41°21' E 002°10'0 0.0
2017-Apr-14 09:26N 41°21' E 002°10'0 0.0
2017-Apr-14 08:38N 41°21' E 002°10'0 0.0
2017-Apr-14 07:32N 41°21' E 002°10'0 0.0
2017-Apr-14 07:26N 41°21' E 002°10'0 0.0
2017-Apr-14 06:57N 41°21' E 002°10'1 2.7
2017-Apr-14 06:29N 41°20' E 002°10'4 9.0
2017-Apr-14 06:00N 41°16' E 002°12'511.0
2017-Apr-14 05:30N 41°11' E 002°16'612.7
2017-Apr-14 05:00N 41°06' E 002°21'612.7
2017-Apr-14 04:30N 41°01' E 002°26'612.7
2017-Apr-14 04:00N 40°56' E 002°32'612.0
2017-Apr-14 03:30N 40°52' E 002°36'612.0
2017-Apr-14 03:00N 40°47' E 002°41'612.0
2017-Apr-14 02:30N 40°42' E 002°46'612.1
2017-Apr-14 02:00N 40°37' E 002°51'612.3
2017-Apr-14 01:30N 40°33' E 002°56'612.3
2017-Apr-14 01:00N 40°28' E 003°01'612.2
2017-Apr-14 00:30N 40°23' E 003°06'611.9
2017-Apr-14 00:00N 40°18' E 003°11'  

Dump ship's entire track history